createdAt,value
2018-05-31T10:12:52.614Z,30.60
2018-05-31T10:13:55.985Z,34.00
2018-05-31T10:14:58.504Z,33.80
2018-05-31T10:16:01.783Z,34.20
2018-05-31T10:17:05.138Z,34.30
2018-05-31T10:18:07.623Z,34.30
2018-05-31T10:19:10.218Z,34.10
2018-05-31T10:20:13.468Z,34.30
2018-05-31T10:21:15.976Z,34.20
2018-05-31T10:22:19.254Z,34.20
2018-05-31T10:23:21.742Z,34.20
2018-05-31T10:24:25.029Z,33.90
2018-05-31T10:25:28.301Z,33.60
2018-05-31T10:26:30.785Z,33.50
2018-05-31T10:27:34.067Z,33.20
2018-05-31T10:28:37.360Z,33.00
2018-05-31T10:29:40.652Z,33.00
2018-05-31T10:30:43.944Z,32.80
2018-05-31T10:31:47.239Z,32.60
2018-05-31T10:32:49.786Z,32.60
2018-05-31T10:33:52.383Z,32.80
2018-05-31T10:34:54.870Z,33.00
2018-05-31T10:35:57.403Z,33.10
2018-05-31T10:37:00.676Z,33.30
2018-05-31T10:38:03.188Z,33.30
2018-05-31T10:39:06.491Z,33.50
2018-05-31T10:40:09.010Z,33.50
2018-05-31T10:41:11.555Z,33.60
2018-05-31T10:42:14.035Z,33.50
2018-05-31T10:43:16.537Z,33.30
2018-05-31T10:44:19.826Z,33.30
2018-05-31T10:45:23.114Z,33.20
2018-05-31T10:46:26.440Z,33.00
2018-05-31T10:47:29.681Z,33.00
2018-05-31T10:48:32.934Z,32.90
2018-05-31T10:49:35.427Z,32.90
2018-05-31T10:50:37.917Z,32.80
2018-05-31T10:51:40.571Z,32.70
2018-05-31T10:52:43.038Z,32.80
2018-05-31T10:53:46.326Z,33.00
2018-05-31T10:54:48.860Z,33.00
2018-05-31T10:55:52.129Z,33.10
2018-05-31T10:56:59.915Z,33.10
2018-05-31T10:58:08.791Z,33.20
2018-05-31T10:59:11.426Z,33.20
2018-05-31T11:00:13.984Z,33.10
2018-05-31T11:01:16.489Z,32.90
2018-05-31T11:02:19.807Z,32.50
2018-05-31T11:03:27.540Z,32.50
2018-05-31T11:04:30.057Z,32.70
2018-05-31T11:05:32.560Z,32.80
2018-05-31T11:06:35.057Z,32.90
2018-05-31T11:07:37.543Z,33.10
2018-05-31T11:08:40.832Z,33.30
2018-05-31T11:09:43.316Z,33.20
2018-05-31T11:10:45.818Z,33.60
2018-05-31T11:11:48.315Z,33.70
2018-05-31T11:12:51.369Z,33.80
2018-05-31T11:13:53.864Z,34.00
2018-05-31T11:14:56.399Z,34.00
2018-05-31T11:15:58.841Z,33.90
2018-05-31T11:17:02.199Z,34.00
2018-05-31T11:18:04.695Z,34.00
2018-05-31T11:32:07.260Z,34.00
2018-05-31T11:33:09.775Z,33.00
2018-05-31T11:34:13.343Z,32.90
2018-05-31T11:35:15.813Z,32.60
2018-05-31T11:36:18.321Z,32.40
2018-05-31T11:37:20.843Z,32.20
2018-05-31T11:38:23.317Z,32.00
2018-05-31T11:39:25.895Z,31.80
2018-05-31T11:40:29.186Z,31.50
2018-05-31T11:41:31.731Z,31.50
2018-05-31T11:42:34.228Z,31.40
2018-05-31T11:43:36.726Z,31.50
2018-05-31T11:44:40.331Z,31.50
2018-05-31T11:45:44.862Z,31.50
2018-05-31T11:46:48.139Z,31.30
2018-05-31T11:47:50.686Z,31.30
2018-05-31T11:48:53.209Z,31.30
2018-05-31T11:49:56.511Z,31.20
2018-05-31T11:50:58.993Z,31.20
2018-05-31T11:52:01.487Z,31.20
2018-05-31T11:53:04.542Z,31.20
2018-05-31T11:54:07.047Z,31.30
2018-05-31T11:55:09.556Z,31.10
2018-05-31T11:56:13.672Z,31.20
2018-05-31T11:57:16.943Z,31.40
2018-05-31T11:58:20.233Z,31.50
2018-05-31T11:59:22.765Z,31.50
2018-05-31T12:00:25.367Z,31.70
2018-05-31T12:01:28.037Z,31.80
2018-05-31T12:02:30.793Z,32.00
2018-05-31T12:03:33.360Z,32.20
2018-05-31T12:04:35.903Z,32.20
2018-05-31T12:05:38.415Z,31.90
2018-05-31T12:06:40.909Z,31.60
2018-05-31T12:07:43.393Z,31.50
2018-05-31T12:08:47.059Z,31.60
2018-05-31T12:09:49.599Z,31.60
2018-05-31T12:10:52.147Z,31.60
2018-05-31T12:11:56.169Z,31.60
2018-05-31T12:12:58.665Z,31.60
2018-05-31T12:14:01.151Z,31.70
2018-05-31T12:15:03.648Z,31.60
2018-05-31T12:16:06.912Z,31.50
2018-05-31T12:17:09.449Z,31.50
2018-05-31T12:18:11.953Z,31.40
2018-05-31T12:19:14.466Z,31.30
2018-05-31T12:20:17.030Z,31.20
2018-05-31T12:21:20.274Z,31.20
2018-05-31T12:22:22.813Z,31.10
2018-05-31T12:23:25.298Z,31.20
2018-05-31T12:24:27.805Z,31.20
2018-05-31T12:25:30.378Z,31.00
2018-05-31T12:26:35.530Z,31.00
2018-05-31T12:27:38.047Z,31.10
2018-05-31T12:28:40.560Z,31.10
2018-05-31T12:29:44.821Z,31.00
2018-05-31T12:30:47.323Z,31.00
2018-05-31T12:31:49.813Z,31.00
2018-05-31T12:32:52.871Z,31.00
2018-05-31T12:33:55.518Z,30.90
2018-05-31T12:34:58.011Z,31.00
2018-05-31T12:36:01.089Z,31.00
2018-05-31T12:37:04.603Z,31.00
2018-05-31T12:38:07.645Z,31.20
2018-05-31T12:39:10.244Z,31.20
2018-05-31T12:40:12.752Z,31.40
2018-05-31T12:41:16.718Z,31.70
2018-05-31T12:42:25.352Z,31.70
2018-05-31T12:43:28.696Z,31.70
2018-05-31T12:44:34.492Z,31.70
2018-05-31T12:45:37.814Z,31.50
2018-05-31T12:46:41.093Z,31.50
2018-05-31T12:47:44.334Z,31.50
2018-05-31T12:48:46.821Z,31.50
2018-05-31T12:49:49.327Z,31.50
2018-05-31T12:50:52.614Z,31.40
2018-05-31T12:51:55.883Z,31.30
2018-05-31T12:52:58.445Z,31.30
2018-05-31T12:54:00.946Z,31.30
2018-05-31T12:55:04.246Z,31.10
2018-05-31T12:56:06.739Z,31.10
2018-05-31T12:57:09.303Z,31.10
2018-05-31T12:58:11.854Z,31.10
2018-05-31T12:59:15.119Z,31.10
2018-05-31T13:00:17.614Z,31.10
2018-05-31T13:01:20.896Z,31.20
2018-05-31T13:02:24.181Z,31.30
2018-05-31T13:03:26.701Z,31.30
2018-05-31T13:04:30.296Z,31.40
2018-05-31T13:05:35.629Z,31.40
2018-05-31T13:06:38.596Z,31.50
2018-05-31T13:07:41.114Z,31.50
2018-05-31T13:08:43.591Z,31.60
2018-05-31T13:09:46.112Z,31.60
2018-05-31T13:10:48.613Z,31.70
2018-05-31T13:11:51.101Z,31.70
2018-05-31T13:12:53.605Z,31.70
2018-05-31T13:13:56.892Z,31.70
2018-05-31T13:15:00.269Z,31.80
2018-05-31T13:16:03.552Z,31.90
2018-05-31T13:17:06.057Z,31.90
2018-05-31T13:18:09.457Z,32.00
2018-05-31T13:19:12.148Z,32.00
2018-05-31T13:20:14.639Z,32.10
2018-05-31T13:21:17.788Z,32.20
2018-05-31T13:22:20.317Z,32.10
2018-05-31T13:23:22.828Z,32.10
2018-05-31T13:24:25.331Z,32.10
2018-05-31T13:25:27.823Z,32.00
2018-05-31T13:26:30.362Z,32.00
2018-05-31T13:27:32.855Z,32.00
2018-05-31T13:28:35.388Z,31.90
2018-05-31T13:29:37.969Z,31.90
2018-05-31T13:30:40.452Z,31.90
2018-05-31T13:31:43.819Z,31.80
2018-05-31T13:32:46.339Z,31.80
2018-05-31T13:33:48.842Z,31.80
2018-05-31T13:34:52.097Z,31.70
2018-05-31T13:35:54.604Z,31.70
2018-05-31T13:36:57.101Z,31.60
2018-05-31T13:37:59.648Z,31.70
2018-05-31T13:39:02.954Z,31.70
2018-05-31T13:40:05.485Z,31.60
2018-05-31T13:41:07.964Z,31.70
2018-05-31T13:42:11.217Z,31.60
2018-05-31T13:43:13.759Z,31.60
2018-05-31T13:44:16.334Z,31.60
2018-05-31T13:45:19.025Z,31.60
2018-05-31T13:46:22.258Z,31.60
2018-05-31T13:47:24.723Z,31.60
2018-05-31T13:48:27.243Z,31.60
2018-05-31T13:49:29.781Z,31.60
2018-05-31T13:50:33.040Z,31.50
2018-05-31T13:51:35.527Z,31.50
2018-05-31T13:52:38.844Z,31.60
2018-05-31T13:53:41.336Z,31.60
2018-05-31T13:54:43.846Z,31.70
2018-05-31T13:55:46.355Z,31.60
2018-05-31T13:56:48.851Z,31.60
2018-05-31T13:57:51.345Z,31.60
2018-05-31T13:58:53.817Z,31.60
2018-05-31T13:59:56.388Z,31.60
2018-05-31T14:00:58.879Z,31.60
2018-05-31T14:02:01.447Z,31.60
2018-05-31T14:03:03.971Z,31.50
2018-05-31T14:04:06.464Z,31.50
2018-05-31T14:05:08.967Z,31.40
2018-05-31T14:06:12.279Z,31.40
2018-05-31T14:07:14.878Z,31.40
2018-05-31T14:08:17.369Z,31.40
2018-05-31T14:09:19.861Z,31.40
2018-05-31T14:10:22.441Z,31.20
2018-05-31T14:11:27.917Z,31.20
2018-05-31T14:12:30.447Z,31.10
2018-05-31T14:13:32.967Z,31.10
2018-05-31T14:14:35.469Z,31.10
2018-05-31T14:15:37.963Z,31.00
2018-05-31T14:16:41.388Z,31.10
2018-05-31T14:17:44.132Z,31.10
2018-05-31T14:18:46.803Z,31.00
2018-05-31T14:19:49.835Z,30.80
2018-05-31T14:20:53.207Z,30.70
2018-05-31T14:21:55.746Z,30.80
2018-05-31T14:22:58.259Z,30.80
2018-05-31T14:24:00.781Z,30.90
2018-05-31T14:25:03.258Z,30.80
2018-05-31T14:26:05.751Z,30.90
2018-05-31T14:27:09.025Z,30.90
2018-05-31T14:28:11.543Z,30.90
2018-05-31T14:29:14.032Z,30.90
2018-05-31T14:30:16.555Z,31.00
2018-05-31T14:31:19.892Z,30.90
2018-05-31T14:32:22.407Z,30.80
2018-05-31T14:33:25.666Z,30.80
2018-05-31T14:34:28.145Z,30.80
2018-05-31T14:35:30.657Z,30.80
2018-05-31T14:36:33.183Z,30.80
2018-05-31T14:37:35.714Z,30.70
2018-05-31T14:38:38.208Z,30.70
2018-05-31T14:39:40.715Z,30.60
2018-05-31T14:40:43.971Z,30.50
2018-05-31T14:41:46.460Z,30.50
2018-05-31T14:42:48.986Z,30.60
2018-05-31T14:43:52.460Z,30.30
2018-05-31T14:44:55.753Z,30.20
2018-05-31T14:45:58.274Z,30.10
2018-05-31T14:47:00.752Z,30.00
2018-05-31T14:48:03.367Z,29.80
2018-05-31T14:49:05.911Z,29.60
2018-05-31T14:50:08.492Z,29.50
2018-05-31T14:51:11.848Z,29.00
2018-05-31T14:52:15.280Z,28.90
2018-05-31T14:53:19.536Z,28.40
2018-05-31T14:54:22.050Z,28.30
2018-05-31T14:55:24.548Z,28.10
2018-05-31T14:56:27.062Z,27.90
2018-05-31T14:57:29.545Z,27.40
2018-05-31T14:58:32.064Z,26.30
2018-05-31T14:59:34.665Z,25.00
2018-05-31T15:00:37.157Z,24.20
2018-05-31T15:01:39.667Z,23.50
2018-05-31T15:12:28.082Z,22.70
2018-05-31T15:13:31.214Z,21.30
2018-05-31T15:14:33.733Z,21.20
2018-05-31T15:15:36.244Z,21.30
2018-05-31T15:16:39.543Z,21.50
2018-05-31T15:17:42.782Z,21.70
2018-05-31T15:18:45.323Z,21.60
2018-05-31T15:19:47.840Z,21.90
2018-05-31T15:20:50.347Z,22.10
2018-05-31T15:21:52.838Z,22.10
2018-05-31T15:22:55.353Z,22.20
2018-05-31T15:23:57.851Z,22.30
2018-05-31T15:25:01.476Z,22.50
2018-05-31T15:26:03.996Z,22.50
2018-05-31T15:27:06.520Z,22.50
2018-05-31T15:28:09.058Z,22.60
2018-05-31T15:29:12.339Z,22.70
2018-05-31T15:30:15.669Z,22.80
2018-05-31T15:31:18.191Z,22.80
2018-05-31T15:32:20.700Z,22.80
2018-05-31T15:33:23.198Z,22.90
2018-05-31T15:34:25.702Z,23.00
2018-05-31T15:35:28.995Z,23.10
2018-05-31T15:36:32.309Z,23.20
2018-05-31T15:37:34.832Z,23.10
2018-05-31T15:38:37.435Z,23.20
2018-05-31T15:39:40.706Z,23.20
2018-05-31T15:40:43.470Z,23.30
2018-05-31T15:41:46.014Z,23.30
2018-05-31T15:42:48.506Z,23.30
2018-05-31T15:43:50.988Z,23.30
2018-05-31T15:44:53.498Z,23.30
2018-05-31T15:45:56.785Z,23.50
2018-05-31T15:46:59.303Z,23.40
2018-05-31T15:48:01.801Z,23.40
2018-05-31T15:49:04.313Z,23.50
2018-05-31T15:50:06.809Z,23.40
2018-05-31T15:51:09.347Z,23.40
2018-05-31T15:52:12.640Z,23.20
2018-05-31T15:53:15.159Z,23.10
2018-05-31T15:54:17.681Z,23.00
2018-05-31T15:55:20.544Z,23.00
2018-05-31T15:56:24.545Z,22.80
2018-05-31T15:57:27.081Z,22.80
2018-05-31T15:58:29.576Z,22.70
2018-05-31T15:59:32.110Z,22.80
2018-05-31T16:00:34.605Z,22.80
2018-05-31T16:01:37.185Z,22.80
2018-05-31T16:02:40.728Z,22.80
2018-05-31T16:03:43.279Z,22.80
2018-05-31T16:04:46.567Z,22.90
2018-05-31T16:05:49.857Z,23.00
2018-05-31T16:06:52.402Z,23.00
2018-05-31T16:07:54.927Z,23.10
2018-05-31T16:08:57.454Z,23.10
2018-05-31T16:09:59.986Z,23.20
2018-05-31T16:11:02.487Z,23.10
2018-05-31T16:12:05.062Z,23.20
2018-05-31T16:13:08.563Z,23.30
2018-05-31T16:14:11.090Z,23.40
2018-05-31T16:15:13.633Z,23.50
2018-05-31T16:16:16.134Z,23.60
2018-05-31T16:17:18.661Z,23.70
2018-05-31T16:18:21.207Z,23.80
2018-05-31T16:19:23.695Z,24.00
2018-05-31T16:20:27.000Z,24.20
2018-05-31T16:21:30.298Z,24.20
2018-05-31T16:22:33.607Z,24.30
2018-05-31T16:23:36.140Z,24.30
2018-05-31T16:24:39.472Z,24.40
2018-05-31T16:25:41.976Z,24.40
2018-05-31T16:26:44.508Z,24.40
2018-05-31T16:27:47.003Z,24.60
2018-05-31T16:28:49.539Z,24.50
2018-05-31T16:29:52.052Z,24.60
2018-05-31T16:30:54.583Z,24.50
2018-05-31T16:31:57.096Z,24.60
2018-05-31T16:32:59.608Z,24.60
2018-05-31T16:34:02.137Z,24.60
2018-05-31T16:35:04.689Z,24.70
2018-05-31T16:36:07.193Z,24.70
2018-05-31T16:37:09.708Z,24.80
2018-05-31T16:38:12.253Z,24.90
2018-05-31T16:39:15.086Z,24.80
2018-05-31T16:40:18.121Z,24.70
2018-05-31T16:41:21.372Z,24.80
2018-05-31T16:42:23.918Z,24.80
2018-05-31T16:43:26.472Z,24.90
2018-05-31T16:44:28.999Z,24.90
2018-05-31T16:45:31.497Z,24.90
2018-05-31T16:46:34.782Z,24.90
2018-05-31T16:47:38.038Z,24.90
2018-05-31T16:48:41.315Z,24.90
2018-05-31T16:49:43.842Z,24.90
2018-05-31T16:50:46.369Z,24.80
2018-05-31T16:51:48.890Z,24.80
2018-05-31T16:52:51.365Z,24.70
2018-05-31T16:53:53.897Z,24.70
2018-05-31T16:54:56.428Z,24.70
2018-05-31T16:55:58.949Z,24.60
2018-05-31T16:57:02.226Z,24.60
2018-05-31T16:58:04.732Z,24.50
2018-05-31T16:59:07.232Z,24.50
2018-05-31T17:00:11.243Z,24.50
2018-05-31T17:01:13.773Z,24.40
2018-05-31T17:02:17.075Z,24.50
2018-05-31T17:03:20.341Z,24.50
2018-05-31T17:04:22.839Z,24.50
2018-05-31T17:05:26.559Z,24.50
2018-05-31T17:06:29.071Z,24.50
2018-05-31T17:07:31.832Z,24.40
2018-05-31T17:08:34.347Z,24.40
2018-05-31T17:09:36.843Z,24.40
2018-05-31T17:11:21.768Z,24.40
2018-05-31T17:12:40.343Z,24.30
2018-05-31T17:13:42.892Z,24.20
2018-05-31T17:14:46.200Z,24.10
2018-05-31T17:15:48.722Z,24.10
2018-05-31T17:16:51.265Z,24.00
2018-05-31T17:17:53.794Z,24.00
2018-05-31T17:18:57.177Z,23.80
2018-05-31T17:20:00.467Z,23.70
2018-05-31T17:21:03.738Z,23.60
2018-05-31T17:22:06.248Z,23.60
2018-05-31T17:23:08.766Z,23.50
2018-05-31T17:24:11.276Z,23.50
2018-05-31T17:25:14.539Z,23.30
2018-05-31T17:26:17.061Z,23.30
2018-05-31T17:27:19.582Z,23.30
2018-05-31T17:28:22.820Z,23.10
2018-05-31T17:29:25.366Z,23.10
2018-05-31T17:30:27.887Z,23.00
2018-05-31T17:31:30.509Z,23.00
2018-05-31T17:32:33.832Z,22.80
2018-05-31T17:33:36.377Z,22.80
2018-05-31T17:34:38.904Z,22.70
2018-05-31T17:35:41.418Z,22.80
2018-05-31T17:36:44.716Z,22.60
2018-05-31T17:37:47.246Z,22.60
2018-05-31T17:38:49.778Z,22.60
2018-05-31T17:39:52.378Z,22.50
2018-05-31T17:40:54.892Z,22.40
2018-05-31T17:41:57.548Z,22.30
2018-05-31T17:43:00.212Z,22.20
2018-05-31T17:44:02.670Z,22.20
2018-05-31T17:45:05.195Z,22.10
2018-05-31T17:46:07.735Z,22.10
2018-05-31T17:47:10.357Z,22.10
2018-05-31T17:48:13.643Z,22.00
2018-05-31T17:49:17.037Z,22.00
2018-05-31T17:50:20.425Z,22.00
2018-05-31T17:51:23.700Z,21.90
2018-05-31T17:52:27.408Z,21.90
2018-05-31T17:53:29.941Z,22.00
2018-05-31T17:54:32.457Z,22.00
2018-05-31T17:55:35.183Z,22.00
2018-05-31T17:56:37.692Z,22.00
2018-05-31T17:57:40.217Z,22.00
2018-05-31T17:58:42.779Z,22.00
2018-05-31T17:59:45.352Z,22.00
2018-05-31T18:00:47.894Z,21.90
2018-05-31T18:01:50.439Z,21.90
2018-05-31T18:02:52.959Z,21.90
2018-05-31T18:03:55.465Z,21.80
2018-05-31T18:04:57.969Z,21.80
2018-05-31T18:06:00.484Z,21.70
2018-05-31T18:07:02.990Z,21.70
2018-05-31T18:08:06.347Z,21.60
2018-05-31T18:09:08.861Z,21.60
2018-05-31T18:10:12.148Z,21.50
2018-05-31T18:11:14.713Z,21.50
2018-05-31T18:12:18.082Z,21.40
2018-05-31T18:13:23.085Z,21.50
2018-05-31T18:14:26.434Z,21.50
2018-05-31T18:15:28.902Z,21.40
2018-05-31T18:16:32.180Z,21.50
2018-05-31T18:17:35.542Z,21.50
2018-05-31T18:18:38.052Z,21.40
2018-05-31T18:19:41.364Z,21.50
2018-05-31T18:20:43.950Z,21.40
2018-05-31T18:21:46.463Z,21.50
2018-05-31T18:22:48.977Z,21.50
2018-05-31T18:23:51.547Z,21.40
2018-05-31T18:24:54.071Z,21.40
2018-05-31T18:25:56.574Z,21.40
2018-05-31T18:26:59.086Z,21.40
2018-05-31T18:28:01.628Z,21.40
2018-05-31T18:29:04.131Z,21.40
2018-05-31T18:30:06.646Z,21.40
2018-05-31T18:31:10.044Z,21.30
2018-05-31T18:32:13.345Z,21.30
2018-05-31T18:33:15.841Z,21.30
2018-05-31T18:34:18.357Z,21.30
2018-05-31T18:35:21.834Z,21.20
2018-05-31T18:36:24.355Z,21.20
2018-05-31T18:37:26.883Z,21.20
2018-05-31T18:38:29.454Z,21.20
2018-05-31T18:39:31.977Z,21.20
2018-05-31T18:40:34.507Z,21.20
2018-05-31T18:41:37.028Z,21.20
2018-05-31T18:42:39.546Z,21.10
2018-05-31T18:43:42.086Z,21.00
2018-05-31T18:44:44.600Z,21.00
2018-05-31T18:45:47.941Z,21.00
2018-05-31T18:46:50.474Z,20.90
2018-05-31T18:47:53.752Z,20.90
2018-05-31T18:48:56.259Z,20.90
2018-05-31T18:49:58.799Z,20.90
2018-05-31T18:51:02.092Z,20.80
2018-05-31T18:52:05.373Z,20.90
2018-05-31T18:53:08.704Z,20.90
2018-05-31T18:54:11.256Z,20.80
2018-05-31T18:55:13.790Z,20.90
2018-05-31T18:56:16.310Z,20.80
2018-05-31T18:57:18.906Z,20.80
2018-05-31T18:58:21.423Z,20.80
2018-05-31T18:59:24.114Z,20.80
2018-05-31T19:00:26.623Z,20.70
2018-05-31T19:01:29.177Z,20.70
2018-05-31T19:02:31.690Z,20.70
2018-05-31T19:03:35.097Z,20.70
2018-05-31T19:04:38.403Z,20.60
2018-05-31T19:05:41.682Z,20.60
2018-05-31T19:06:44.243Z,20.60
2018-05-31T19:07:46.775Z,20.60
2018-05-31T19:08:49.304Z,20.50
2018-05-31T19:09:53.575Z,20.50
2018-05-31T19:10:56.111Z,20.50
2018-05-31T19:11:58.628Z,20.50
2018-05-31T19:13:07.641Z,20.50
2018-05-31T19:14:10.284Z,20.40
2018-05-31T19:15:21.631Z,20.40
2018-05-31T19:16:16.945Z,20.30
2018-05-31T19:17:19.494Z,20.30
2018-05-31T19:18:29.208Z,20.20
2018-05-31T19:19:37.588Z,20.20
2018-05-31T19:20:40.101Z,20.20
2018-05-31T19:21:42.643Z,20.20
2018-05-31T19:22:45.167Z,20.10
2018-05-31T19:23:47.758Z,20.10
2018-05-31T19:24:55.951Z,20.10
2018-05-31T19:26:00.532Z,20.00
2018-05-31T19:27:03.074Z,20.00
2018-05-31T19:28:05.653Z,20.00
2018-05-31T19:29:08.258Z,20.00
2018-05-31T19:30:16.258Z,20.00
2018-05-31T19:31:18.825Z,19.90
2018-05-31T19:32:21.898Z,19.90
2018-05-31T19:33:24.443Z,19.90
2018-05-31T19:34:27.802Z,19.80
2018-05-31T19:35:35.945Z,19.80
2018-05-31T19:36:45.411Z,19.80
2018-05-31T19:37:47.934Z,19.80
2018-05-31T19:38:50.490Z,19.80
2018-05-31T19:39:53.824Z,19.70
2018-05-31T19:40:56.360Z,19.70
2018-05-31T19:41:58.965Z,19.70
2018-05-31T19:43:07.211Z,19.70
2018-05-31T19:45:44.331Z,19.70
2018-05-31T19:46:46.837Z,20.30
2018-05-31T19:47:50.917Z,20.80
2018-05-31T19:48:53.469Z,20.80
2018-05-31T19:49:56.044Z,21.20
2018-05-31T19:50:58.564Z,21.80
2018-05-31T19:52:07.516Z,22.20
2018-05-31T19:53:15.801Z,22.50
2018-05-31T19:54:18.349Z,22.80
2018-05-31T19:55:20.883Z,22.90
2018-05-31T19:56:24.299Z,23.10
2018-05-31T19:57:26.853Z,23.20
2018-05-31T19:58:35.009Z,23.30
2018-05-31T19:59:43.894Z,23.60
2018-05-31T20:00:53.875Z,23.60
2018-05-31T20:02:06.163Z,23.60
2018-05-31T20:03:17.691Z,23.70
2018-05-31T20:04:23.295Z,23.60
2018-05-31T20:05:28.018Z,23.80
2018-05-31T20:06:35.219Z,23.60
2018-05-31T20:07:49.805Z,23.60
2018-05-31T20:08:52.870Z,23.60
2018-05-31T20:09:55.516Z,23.50
2018-05-31T20:11:02.936Z,23.30
2018-05-31T20:12:11.508Z,23.30
2018-05-31T20:13:14.310Z,23.40
2018-05-31T20:14:23.060Z,23.50
2018-05-31T20:15:29.023Z,23.70
2018-05-31T20:16:31.719Z,23.70
2018-05-31T20:17:36.051Z,23.80
2018-05-31T20:18:40.819Z,23.70
2018-05-31T20:19:45.697Z,23.70
2018-05-31T20:21:05.759Z,23.80
2018-05-31T20:22:11.164Z,24.00
2018-05-31T20:23:14.137Z,23.90
2018-05-31T20:24:16.752Z,24.00
2018-05-31T20:25:23.988Z,24.00
2018-05-31T20:26:29.311Z,23.90
2018-05-31T20:27:41.054Z,23.90
2018-05-31T20:28:47.367Z,24.00
2018-05-31T20:29:56.987Z,24.00
2018-05-31T20:30:59.987Z,24.00
2018-05-31T20:32:19.337Z,24.00
2018-05-31T20:33:24.354Z,24.00
2018-05-31T20:34:27.617Z,24.00
2018-05-31T20:35:31.431Z,24.00
2018-05-31T20:36:35.928Z,24.00
2018-05-31T20:37:41.843Z,24.00
2018-05-31T20:38:46.595Z,23.90
2018-05-31T20:39:53.762Z,23.80
2018-05-31T20:40:56.574Z,23.80
2018-05-31T20:42:00.264Z,23.90
2018-05-31T20:43:07.867Z,23.90
2018-05-31T20:44:11.466Z,23.90
2018-05-31T20:45:15.833Z,23.90
2018-05-31T20:46:20.034Z,24.00
2018-05-31T20:47:23.838Z,24.00
2018-05-31T20:48:26.518Z,24.00
2018-05-31T20:49:29.856Z,24.00
2018-05-31T20:50:34.650Z,24.00
2018-05-31T20:51:38.028Z,24.00
2018-05-31T20:52:43.812Z,24.00
2018-05-31T20:53:58.576Z,24.00
2018-05-31T20:55:10.911Z,23.90
2018-05-31T20:56:14.876Z,24.00
2018-05-31T20:57:18.378Z,24.00
2018-05-31T20:58:21.872Z,24.00
2018-05-31T20:59:24.982Z,23.80
2018-05-31T21:00:27.770Z,23.60
2018-05-31T21:01:31.452Z,23.20
2018-05-31T21:02:34.129Z,23.20
2018-05-31T21:03:39.337Z,23.00
2018-05-31T21:04:42.735Z,22.80
2018-05-31T21:05:46.077Z,22.60
2018-05-31T21:06:48.734Z,22.60
2018-05-31T21:07:51.379Z,22.30
2018-05-31T21:08:53.925Z,22.10
2018-05-31T21:09:56.459Z,21.80
2018-05-31T21:10:59.015Z,21.60
2018-05-31T21:12:01.597Z,21.40
2018-05-31T21:13:04.096Z,21.20
2018-05-31T21:14:06.603Z,21.10
2018-05-31T21:15:09.181Z,21.00
2018-05-31T21:16:11.710Z,20.90
2018-05-31T21:17:14.240Z,20.80
2018-05-31T21:18:16.752Z,20.60
2018-05-31T21:19:19.270Z,20.60
2018-05-31T21:20:22.547Z,20.40
2018-05-31T21:21:25.836Z,20.30
2018-05-31T21:22:28.334Z,20.20
2018-05-31T21:23:30.834Z,20.20
2018-05-31T21:24:34.080Z,20.10
2018-05-31T21:25:37.374Z,20.00
2018-05-31T21:26:39.872Z,20.00
2018-05-31T21:27:42.375Z,20.00
2018-05-31T21:28:44.859Z,19.90
2018-05-31T21:29:47.354Z,19.80
2018-05-31T21:30:50.653Z,19.80
2018-05-31T21:31:53.159Z,19.80
2018-05-31T21:32:55.635Z,19.80
2018-05-31T21:33:58.141Z,19.80
2018-05-31T21:35:00.639Z,19.70
2018-05-31T21:36:03.165Z,19.70
2018-05-31T21:37:05.687Z,19.70
2018-05-31T21:38:08.202Z,19.60
2018-05-31T21:39:10.729Z,19.60
2018-05-31T21:40:13.241Z,19.50
2018-05-31T21:41:15.744Z,19.50
2018-05-31T21:42:19.012Z,19.50
2018-05-31T21:43:21.530Z,19.50
2018-05-31T21:44:24.046Z,19.60
2018-05-31T21:45:26.562Z,19.60
2018-05-31T21:46:29.084Z,19.70
2018-05-31T21:47:31.608Z,19.60
2018-05-31T21:48:34.114Z,19.60
2018-05-31T21:49:36.628Z,19.60
2018-05-31T21:50:39.890Z,19.60
2018-05-31T21:51:42.383Z,19.60
2018-05-31T21:52:45.760Z,19.60
2018-05-31T21:53:48.237Z,19.60
2018-05-31T21:54:50.712Z,19.60
2018-05-31T21:55:53.973Z,19.50
2018-05-31T21:56:56.481Z,19.50
2018-05-31T21:57:59.050Z,19.60
2018-05-31T21:59:01.502Z,19.50
2018-05-31T22:00:04.045Z,19.40
2018-05-31T22:01:07.136Z,19.40
2018-05-31T22:02:09.653Z,19.40
2018-05-31T22:03:12.142Z,19.30
2018-05-31T22:04:14.650Z,19.30
2018-05-31T22:05:17.148Z,19.30
2018-05-31T22:06:19.648Z,19.20
2018-05-31T22:07:22.307Z,19.20
2018-05-31T22:08:25.578Z,19.20
2018-05-31T22:09:28.162Z,19.20
2018-05-31T22:10:30.663Z,19.20
2018-05-31T22:11:33.164Z,19.20
2018-05-31T22:12:35.661Z,19.20
2018-05-31T22:13:38.169Z,19.20
2018-05-31T22:14:41.428Z,19.30
2018-05-31T22:15:43.913Z,19.30
2018-05-31T22:16:47.193Z,19.20
2018-05-31T22:17:49.715Z,19.20
2018-05-31T22:18:52.274Z,19.20
2018-05-31T22:19:54.787Z,19.20
2018-05-31T22:20:57.293Z,19.20
2018-05-31T22:21:59.814Z,19.10
2018-05-31T22:23:02.311Z,19.10
2018-05-31T22:24:04.846Z,19.00
2018-05-31T22:25:07.336Z,19.00
2018-05-31T22:26:09.846Z,19.00
2018-05-31T22:27:13.111Z,19.00
2018-05-31T22:28:15.621Z,19.00
2018-05-31T22:29:18.132Z,19.00
2018-05-31T22:30:20.662Z,19.00
2018-05-31T22:31:23.158Z,19.00
2018-05-31T22:32:25.651Z,19.10
2018-05-31T22:33:28.149Z,19.30
2018-05-31T22:34:30.658Z,19.70
2018-05-31T22:35:33.148Z,19.70
2018-05-31T22:36:35.650Z,19.50
2018-05-31T22:37:38.136Z,19.40
2018-05-31T22:38:40.658Z,19.40
2018-05-31T22:39:43.735Z,19.30
2018-05-31T22:40:47.316Z,19.30
2018-05-31T22:41:49.802Z,19.20
2018-05-31T22:42:52.294Z,19.20
2018-05-31T22:43:54.823Z,19.10
2018-05-31T22:44:57.296Z,19.10
2018-05-31T22:45:59.886Z,19.10
2018-05-31T22:47:02.335Z,19.00
2018-05-31T22:48:05.828Z,18.90
2018-05-31T22:49:08.300Z,18.90
2018-05-31T22:50:10.809Z,18.90
2018-05-31T22:51:13.330Z,18.80
2018-05-31T22:52:15.813Z,18.80
2018-05-31T22:53:18.301Z,18.90
2018-05-31T22:54:20.820Z,18.90
2018-05-31T22:55:24.085Z,18.90
2018-05-31T22:56:26.590Z,18.90
2018-05-31T22:57:29.842Z,18.90
2018-05-31T22:58:32.323Z,18.90
2018-05-31T22:59:34.812Z,18.90
2018-05-31T23:00:37.311Z,19.10
2018-05-31T23:01:39.862Z,19.10
2018-05-31T23:02:43.113Z,19.00
2018-05-31T23:03:45.598Z,19.00
2018-05-31T23:04:48.081Z,19.00
2018-05-31T23:05:50.590Z,19.00
2018-05-31T23:06:53.090Z,18.90
2018-05-31T23:07:55.572Z,18.90
2018-05-31T23:08:58.055Z,18.90
2018-05-31T23:10:00.572Z,18.90
2018-05-31T23:11:03.072Z,18.90
2018-05-31T23:12:05.561Z,18.80
2018-05-31T23:13:08.086Z,18.80
2018-05-31T23:14:10.644Z,18.80
2018-05-31T23:15:13.133Z,18.80
2018-05-31T23:16:15.605Z,18.80
2018-05-31T23:17:18.208Z,18.70
2018-05-31T23:18:20.680Z,18.90
2018-05-31T23:19:23.173Z,18.90
2018-05-31T23:20:26.434Z,18.80
2018-05-31T23:21:28.934Z,18.80
2018-05-31T23:22:31.438Z,18.80
2018-05-31T23:23:33.909Z,18.70
2018-05-31T23:24:36.398Z,18.80
2018-05-31T23:25:38.889Z,18.80
2018-05-31T23:26:41.378Z,18.70
2018-05-31T23:27:43.903Z,18.70
2018-05-31T23:28:46.394Z,18.70
2018-05-31T23:29:48.876Z,18.60
2018-05-31T23:30:51.376Z,18.70
2018-05-31T23:31:54.630Z,18.60
2018-05-31T23:32:57.126Z,18.60
2018-05-31T23:34:00.438Z,18.60
2018-05-31T23:35:02.929Z,18.60
2018-05-31T23:36:05.398Z,18.60
2018-05-31T23:37:07.875Z,18.50
2018-05-31T23:38:10.378Z,18.50
2018-05-31T23:39:12.886Z,18.60
2018-05-31T23:40:15.372Z,18.60
2018-05-31T23:41:17.850Z,18.60
2018-05-31T23:42:20.341Z,18.60
2018-05-31T23:43:22.843Z,18.60
2018-05-31T23:44:26.114Z,18.60
2018-05-31T23:45:28.617Z,18.60
2018-05-31T23:46:31.868Z,18.60
2018-05-31T23:47:34.352Z,18.50
2018-05-31T23:48:36.850Z,18.50
2018-05-31T23:49:40.099Z,18.50
2018-05-31T23:50:42.609Z,18.50
2018-05-31T23:51:45.854Z,18.50
2018-05-31T23:52:48.334Z,18.50
2018-05-31T23:53:50.832Z,18.50
2018-05-31T23:54:54.083Z,18.50
2018-05-31T23:55:56.562Z,18.50
2018-05-31T23:56:59.043Z,18.50
2018-05-31T23:58:01.523Z,18.50
2018-05-31T23:59:04.800Z,18.50
